Time;durP1;ratioP1;P1;durP2;ratioP2;P2;SDS_P1;SDS_P2;PMS_P1;PMS_P2;Temp;Humidity;BMP_temperature;BMP_pressure;BME280_temperature;BME280_humidity;BME280_pressure;Samples;Min_cycle;Max_cycle;Signal;HPM_P1;HPM_P2
2022/12/31 01:07:59;;;;;;;1.02;0.93;;;12.00;99.90;;;;;;5052775;28;20220;-94
2022/12/31 01:13:11;;;;;;;1.35;0.90;;;12.10;99.90;;;;;;5053447;28;20501;-94
2022/12/31 01:15:39;;;;;;;0.80;0.70;;;12.20;99.90;;;;;;5041313;28;20220;-93
2022/12/31 01:18:08;;;;;;;0.90;0.80;;;12.20;99.90;;;;;;5041224;28;20256;-93
2022/12/31 01:20:36;;;;;;;1.10;1.00;;;12.30;99.90;;;;;;5044892;28;20249;-94
2022/12/31 01:23:09;;;;;;;0.80;0.80;;;12.30;99.90;;;;;;5044450;28;20205;-94
2022/12/31 01:25:44;;;;;;;1.45;1.08;;;12.30;99.90;;;;;;5045028;28;20284;-93
2022/12/31 01:28:11;;;;;;;0.95;0.85;;;12.40;99.90;;;;;;5048369;28;20327;-95
2022/12/31 01:30:48;;;;;;;1.75;1.02;;;12.40;99.90;;;;;;5041997;28;20248;-94
2022/12/31 01:33:18;;;;;;;0.80;0.80;;;12.50;99.90;;;;;;5049172;28;20273;-95
2022/12/31 01:35:48;;;;;;;1.10;0.95;;;12.50;99.90;;;;;;5053259;28;20229;-95
2022/12/31 01:38:16;;;;;;;1.48;1.05;;;12.50;99.90;;;;;;5051249;28;20189;-94
2022/12/31 01:40:44;;;;;;;0.98;0.88;;;12.60;99.90;;;;;;5051808;28;20245;-94
2022/12/31 01:43:16;;;;;;;1.02;0.80;;;12.60;99.90;;;;;;5057194;28;20241;-93
2022/12/31 01:45:45;;;;;;;1.15;0.80;;;12.60;99.90;;;;;;5054709;28;20170;-93
2022/12/31 01:48:17;;;;;;;0.93;0.82;;;12.70;99.90;;;;;;5053691;28;20220;-94
2022/12/31 01:50:47;;;;;;;2.45;0.95;;;12.70;99.90;;;;;;5052434;28;20209;-94
2022/12/31 01:53:23;;;;;;;1.10;0.90;;;12.70;99.90;;;;;;5050489;28;20194;-94
2022/12/31 01:55:53;;;;;;;0.80;0.70;;;12.70;99.90;;;;;;5051403;28;20212;-93
2022/12/31 01:58:23;;;;;;;1.20;0.85;;;12.70;99.90;;;;;;5053657;28;20208;-94
2022/12/31 02:00:54;;;;;;;1.08;0.80;;;12.60;99.90;;;;;;5056798;28;20245;-96
2022/12/31 02:03:23;;;;;;;1.20;1.10;;;12.60;99.90;;;;;;5057638;28;20201;-94
2022/12/31 02:05:59;;;;;;;2.67;1.23;;;12.60;99.90;;;;;;5057350;28;20201;-94
2022/12/31 02:11:22;;;;;;;0.95;0.85;;;12.60;99.90;;;;;;5322556;22;20513;-93
2022/12/31 02:14:28;;;;;;;1.05;0.82;;;12.60;99.90;;;;;;5036563;28;20229;-93
2022/12/31 02:17:16;;;;;;;1.05;0.95;;;12.60;99.90;;;;;;5038137;28;20192;-95
2022/12/31 02:25:36;;;;;;;1.08;0.80;;;12.60;99.90;;;;;;5123182;22;20310;-94
2022/12/31 02:28:22;;;;;;;0.80;0.80;;;12.60;99.90;;;;;;5007716;28;20217;-93
2022/12/31 02:30:58;;;;;;;1.10;0.93;;;12.60;99.90;;;;;;5039626;28;20473;-93
2022/12/31 02:34:04;;;;;;;0.80;0.70;;;12.60;99.90;;;;;;5039580;28;20174;-93
2022/12/31 02:36:39;;;;;;;1.15;0.80;;;12.70;99.90;;;;;;5036368;28;20209;-93
2022/12/31 02:41:53;;;;;;;2.13;0.75;;;12.80;99.90;;;;;;5033569;28;20186;-95
2022/12/31 02:44:25;;;;;;;1.00;0.90;;;12.80;99.90;;;;;;5037117;28;20202;-92
2022/12/31 02:47:08;;;;;;;1.90;1.10;;;12.80;99.90;;;;;;5038962;28;20437;-93
2022/12/31 02:49:59;;;;;;;1.20;1.05;;;12.90;99.90;;;;;;5038897;28;20448;-92
2022/12/31 02:52:44;;;;;;;1.02;0.93;;;12.90;99.90;;;;;;5038837;28;20186;-92
2022/12/31 02:55:18;;;;;;;2.45;1.20;;;13.00;99.90;;;;;;5039384;28;20190;-93
2022/12/31 02:58:08;;;;;;;2.58;0.98;;;13.00;99.90;;;;;;5039470;28;20203;-95
2022/12/31 03:03:29;;;;;;;1.00;0.90;;;13.10;99.90;;;;;;5039419;28;20169;-94
2022/12/31 03:05:57;;;;;;;1.42;1.00;;;13.10;99.90;;;;;;5038626;28;20289;-92
2022/12/31 03:08:27;;;;;;;1.20;1.00;;;13.20;99.90;;;;;;5038403;28;20182;-94
2022/12/31 03:10:55;;;;;;;1.10;0.90;;;13.20;99.90;;;;;;5038776;28;20210;-94
2022/12/31 03:13:21;;;;;;;0.90;0.80;;;13.30;99.90;;;;;;5038768;28;20182;-93
2022/12/31 03:15:48;;;;;;;1.00;0.88;;;13.30;99.90;;;;;;5038964;28;20186;-93
2022/12/31 03:22:26;;;;;;;1.02;0.82;;;13.30;99.90;;;;;;5038971;28;20187;-94
2022/12/31 03:26:53;;;;;;;1.07;0.90;;;13.20;99.90;;;;;;5037523;28;20457;-93
2022/12/31 03:29:23;;;;;;;1.33;0.90;;;13.30;99.90;;;;;;5036372;28;20461;-94
2022/12/31 03:31:53;;;;;;;1.10;0.80;;;13.40;99.90;;;;;;5034206;28;20540;-94
2022/12/31 03:34:22;;;;;;;1.00;0.90;;;13.50;99.90;;;;;;5035737;28;20556;-95
2022/12/31 03:36:49;;;;;;;1.00;0.87;;;13.50;99.90;;;;;;5037201;28;20434;-95
2022/12/31 03:42:03;;;;;;;1.53;1.00;;;13.60;99.90;;;;;;5044231;22;20551;-94
2022/12/31 03:51:22;;;;;;;0.80;0.70;;;13.70;99.90;;;;;;5057858;28;20491;-95
2022/12/31 03:53:53;;;;;;;0.90;0.80;;;13.70;99.90;;;;;;5057540;28;20459;-94
2022/12/31 03:56:21;;;;;;;1.20;0.93;;;13.70;99.90;;;;;;5058504;28;20428;-94
2022/12/31 03:59:04;;;;;;;1.52;0.90;;;13.80;99.90;;;;;;5058531;28;20506;-94
2022/12/31 04:01:58;;;;;;;1.05;0.95;;;13.80;99.90;;;;;;5057453;28;20202;-94
2022/12/31 04:04:27;;;;;;;0.95;0.85;;;13.80;99.90;;;;;;5058357;28;20189;-93
2022/12/31 04:06:56;;;;;;;1.07;0.97;;;13.90;99.90;;;;;;5103572;22;20251;-93
2022/12/31 04:09:32;;;;;;;1.17;0.90;;;13.90;99.90;;;;;;5056678;28;20472;-95
2022/12/31 04:11:59;;;;;;;0.95;0.80;;;13.90;99.90;;;;;;5037903;28;20456;-94
2022/12/31 04:14:27;;;;;;;1.00;0.80;;;13.90;99.90;;;;;;5038733;28;20285;-96
2022/12/31 04:17:07;;;;;;;1.00;0.90;;;13.90;99.90;;;;;;5037791;28;20452;-93
2022/12/31 04:19:34;;;;;;;0.90;0.80;;;14.00;99.90;;;;;;5037695;28;20524;-93
2022/12/31 04:22:57;;;;;;;0.90;0.70;;;14.00;99.90;;;;;;5037846;28;20465;-94
2022/12/31 04:28:01;;;;;;;1.10;0.97;;;14.00;99.90;;;;;;5083109;22;20467;-95
2022/12/31 04:30:28;;;;;;;0.80;0.80;;;14.00;99.90;;;;;;5054074;28;20583;-94
2022/12/31 04:35:37;;;;;;;0.97;0.87;;;14.00;99.90;;;;;;5053157;28;20666;-94
2022/12/31 04:38:06;;;;;;;1.00;0.90;;;13.90;99.90;;;;;;5054042;28;20459;-93
2022/12/31 04:40:33;;;;;;;0.80;0.70;;;13.90;99.90;;;;;;5055987;28;20475;-94
2022/12/31 04:54:56;;;;;;;0.80;0.80;;;13.60;99.90;;;;;;5036340;28;20214;-93
2022/12/31 04:57:23;;;;;;;2.22;0.98;;;13.60;99.90;;;;;;5036962;28;20433;-92
2022/12/31 04:59:57;;;;;;;0.97;0.87;;;13.60;99.90;;;;;;5267431;22;20233;-93
2022/12/31 05:02:24;;;;;;;0.80;0.73;;;13.60;99.90;;;;;;5057418;28;20478;-93
2022/12/31 05:10:13;;;;;;;1.20;0.90;;;13.40;99.90;;;;;;5056833;28;20456;-92
2022/12/31 05:12:54;;;;;;;1.25;0.93;;;13.40;99.90;;;;;;5057692;28;20228;-94
2022/12/31 05:15:27;;;;;;;1.17;0.82;;;13.40;99.90;;;;;;5464196;22;20225;-91
2022/12/31 05:17:54;;;;;;;0.93;0.80;;;13.40;99.90;;;;;;5045461;28;20198;-92
2022/12/31 05:20:22;;;;;;;1.47;0.97;;;13.40;99.90;;;;;;5068220;22;20225;-93
2022/12/31 05:26:01;;;;;;;;;;;;;;;;;;;;;
2022/12/31 05:31:55;;;;;;;1.10;0.90;;;13.50;99.90;;;;;;5038220;28;20194;-94
2022/12/31 05:34:27;;;;;;;1.23;1.00;;;13.50;99.90;;;;;;5041167;28;20249;-93
2022/12/31 05:39:32;;;;;;;1.30;1.10;;;13.50;99.90;;;;;;5169075;22;20204;-95
2022/12/31 05:42:11;;;;;;;0.90;0.73;;;13.40;99.90;;;;;;5080278;28;20169;-95
2022/12/31 05:44:38;;;;;;;1.00;0.90;;;13.40;99.90;;;;;;5103498;22;20221;-92
2022/12/31 05:47:35;;;;;;;1.00;0.80;;;13.40;99.90;;;;;;5060886;28;20197;-92
2022/12/31 05:50:31;;;;;;;0.90;0.80;;;13.40;99.90;;;;;;5059207;28;20202;-93
2022/12/31 05:53:07;;;;;;;1.33;0.90;;;13.40;99.90;;;;;;5060596;28;20186;-93
2022/12/31 05:55:34;;;;;;;0.90;0.80;;;13.40;99.90;;;;;;5060770;28;20225;-93
2022/12/31 06:01:29;;;;;;;0.90;0.77;;;13.30;99.90;;;;;;5060425;28;20197;-95
2022/12/31 06:03:57;;;;;;;0.77;0.70;;;13.20;99.90;;;;;;5153254;22;20233;-93
2022/12/31 06:09:29;;;;;;;1.05;0.93;;;13.20;99.90;;;;;;5174104;22;20233;-94
2022/12/31 06:12:00;;;;;;;1.02;0.80;;;13.20;99.90;;;;;;5021325;28;20193;-91
2022/12/31 06:14:38;;;;;;;0.93;0.82;;;13.20;99.90;;;;;;5020770;28;20566;-92
2022/12/31 06:17:10;;;;;;;0.90;0.80;;;13.20;99.90;;;;;;5020932;28;20186;-93
2022/12/31 06:19:37;;;;;;;1.00;0.90;;;13.20;99.90;;;;;;5019569;28;20194;-92
2022/12/31 06:22:04;;;;;;;1.15;1.05;;;13.20;99.90;;;;;;5020320;28;20187;-92
2022/12/31 06:33:59;;;;;;;1.05;0.95;;;13.40;99.90;;;;;;5018927;28;20191;-94
2022/12/31 06:37:38;;;;;;;1.42;0.98;;;13.40;99.90;;;;;;5019007;28;20215;-95
2022/12/31 06:40:41;;;;;;;0.80;0.70;;;13.40;99.90;;;;;;5019773;28;20203;-94
2022/12/31 06:46:23;;;;;;;0.80;0.80;;;13.40;99.90;;;;;;5014491;28;20291;-94
2022/12/31 06:48:50;;;;;;;0.93;0.80;;;13.40;99.90;;;;;;4999034;28;20516;-92
2022/12/31 06:51:18;;;;;;;1.08;0.98;;;13.40;99.90;;;;;;4996616;28;20242;-92
2022/12/31 06:57:19;;;;;;;0.90;0.80;;;13.40;99.90;;;;;;4965320;29;20301;-93
2022/12/31 07:00:16;;;;;;;1.03;0.80;;;13.50;99.90;;;;;;5010466;28;20222;-94
2022/12/31 07:20:31;;;;;;;1.00;0.90;;;13.50;99.90;;;;;;5016234;28;20214;-93
2022/12/31 07:38:04;;;;;;;3.40;0.97;;;13.60;99.90;;;;;;5213665;22;20519;-92
2022/12/31 07:40:39;;;;;;;0.90;0.80;;;13.70;99.90;;;;;;5047222;28;20508;-93
2022/12/31 07:43:16;;;;;;;0.90;0.80;;;13.70;99.90;;;;;;5052800;28;20208;-92
2022/12/31 07:45:53;;;;;;;1.00;0.82;;;13.80;99.90;;;;;;5050657;28;20190;-92
2022/12/31 07:48:34;;;;;;;1.00;0.88;;;13.80;99.90;;;;;;5050384;28;20269;-92
2022/12/31 07:51:01;;;;;;;1.00;0.90;;;13.80;99.90;;;;;;5051760;28;20223;-91
2022/12/31 07:53:29;;;;;;;0.90;0.80;;;13.80;99.90;;;;;;5051783;28;20464;-91
2022/12/31 07:59:19;;;;;;;1.37;1.00;;;13.80;99.90;;;;;;5029084;28;20233;-93
2022/12/31 08:05:21;;;;;;;1.13;0.80;;;13.80;99.90;;;;;;5032530;28;20269;-93
2022/12/31 08:07:56;;;;;;;1.05;0.95;;;13.80;99.90;;;;;;5036142;28;20717;-91
2022/12/31 08:16:23;;;;;;;1.10;0.70;;;14.10;99.90;;;;;;5416887;22;20263;-92
2022/12/31 08:22:06;;;;;;;0.90;0.80;;;14.20;99.90;;;;;;5051878;28;20473;-94
2022/12/31 08:25:54;;;;;;;1.00;0.90;;;14.30;99.90;;;;;;5052970;28;20205;-94
2022/12/31 08:28:31;;;;;;;1.17;1.00;;;14.30;99.90;;;;;;5043192;28;21023;-92
2022/12/31 08:31:01;;;;;;;1.17;0.90;;;14.40;99.90;;;;;;5035185;28;20232;-91
2022/12/31 08:33:37;;;;;;;1.30;0.83;;;14.80;99.90;;;;;;5027658;28;20461;-91
2022/12/31 08:36:16;;;;;;;3.17;1.30;;;15.20;99.90;;;;;;5014488;28;20481;-92
2022/12/31 08:38:57;;;;;;;0.80;0.70;;;15.60;99.90;;;;;;5018383;28;20461;-93
2022/12/31 08:41:33;;;;;;;1.00;0.90;;;16.00;99.90;;;;;;5025521;28;20546;-93
2022/12/31 08:44:10;;;;;;;1.10;1.00;;;16.00;99.90;;;;;;5019327;28;20536;-94
2022/12/31 08:46:57;;;;;;;1.27;1.17;;;15.90;99.90;;;;;;5017228;28;20461;-94
2022/12/31 08:49:30;;;;;;;1.47;0.90;;;15.60;99.90;;;;;;5022288;28;20480;-93
2022/12/31 08:51:58;;;;;;;1.20;1.00;;;15.20;99.90;;;;;;5019097;28;20922;-94
2022/12/31 08:54:27;;;;;;;1.07;0.97;;;15.00;99.90;;;;;;5019599;28;20471;-93
2022/12/31 08:57:03;;;;;;;1.83;0.83;;;14.80;99.90;;;;;;5018763;28;20485;-93
2022/12/31 08:59:40;;;;;;;1.10;0.97;;;14.70;99.90;;;;;;5019078;28;20452;-93
2022/12/31 09:02:32;;;;;;;1.20;1.00;;;14.70;99.90;;;;;;5018748;28;20471;-93
2022/12/31 09:05:08;;;;;;;1.10;1.00;;;14.70;99.90;;;;;;5020620;28;20453;-93
2022/12/31 09:07:38;;;;;;;1.57;1.47;;;14.70;99.90;;;;;;5019982;28;20464;-93
2022/12/31 09:10:15;;;;;;;1.20;0.90;;;14.80;99.90;;;;;;5019085;28;20489;-93
2022/12/31 09:17:47;;;;;;;0.90;0.80;;;15.30;99.90;;;;;;5027598;28;20527;-68
2022/12/31 09:20:17;;;;;;;0.93;0.80;;;15.50;99.90;;;;;;5018172;28;20465;-67
2022/12/31 09:22:44;;;;;;;0.90;0.80;;;15.60;99.90;;;;;;5013687;28;20477;-67
2022/12/31 09:25:16;;;;;;;0.90;0.80;;;15.90;99.90;;;;;;5015548;28;20481;-68
2022/12/31 09:27:52;;;;;;;1.00;0.90;;;16.10;99.90;;;;;;5034931;28;20817;-68
2022/12/31 09:30:19;;;;;;;1.00;0.90;;;16.50;99.90;;;;;;5032693;28;20460;-68
2022/12/31 09:32:53;;;;;;;1.43;1.00;;;17.00;99.90;;;;;;5030046;28;20461;-68
2022/12/31 09:35:30;;;;;;;1.00;0.80;;;18.20;99.90;;;;;;5013310;28;20489;-68
2022/12/31 09:38:01;;;;;;;1.10;0.80;;;19.80;99.90;;;;;;5013499;28;20464;-68
2022/12/31 09:41:04;;;;;;;1.07;0.80;;;21.20;99.90;;;;;;5030289;28;20467;-68
2022/12/31 09:44:00;;;;;;;1.30;1.00;;;22.20;99.90;;;;;;5023917;28;20818;-70
2022/12/31 09:46:47;;;;;;;1.93;1.00;;;22.50;99.90;;;;;;5021933;28;20556;-68
2022/12/31 09:49:46;;;;;;;1.37;1.00;;;22.40;99.90;;;;;;5013366;28;20461;-68
2022/12/31 09:52:22;;;;;;;1.00;0.83;;;23.40;99.90;;;;;;4995001;28;20479;-68
2022/12/31 09:54:53;;;;;;;0.90;0.80;;;23.90;99.90;;;;;;5021148;28;20511;-68
2022/12/31 09:57:38;;;;;;;1.00;0.80;;;23.10;99.90;;;;;;5013621;28;20830;-69
2022/12/31 10:00:10;;;;;;;1.20;0.90;;;23.00;99.90;;;;;;5013784;28;20468;-69
2022/12/31 10:02:58;;;;;;;1.13;0.90;;;23.50;99.90;;;;;;5024708;28;20468;-69
2022/12/31 10:05:42;;;;;;;1.10;0.90;;;24.40;99.90;;;;;;5015048;28;20473;-68
2022/12/31 10:08:24;;;;;;;0.97;0.80;;;25.10;99.90;;;;;;5032718;28;20463;-68
2022/12/31 10:10:55;;;;;;;0.90;0.70;;;24.40;99.90;;;;;;5032501;28;20463;-68
2022/12/31 10:13:44;;;;;;;1.00;0.80;;;24.80;99.90;;;;;;5033247;28;20449;-68
2022/12/31 10:16:33;;;;;;;1.27;0.80;;;25.70;99.90;;;;;;5016780;28;20493;-69
2022/12/31 10:19:37;;;;;;;1.40;0.90;;;25.50;99.80;;;;;;5029671;28;20471;-69
2022/12/31 10:22:19;;;;;;;1.00;0.90;;;24.70;99.90;;;;;;5032867;28;20827;-68
2022/12/31 10:25:00;;;;;;;0.90;0.80;;;24.40;99.90;;;;;;5014901;28;20481;-68
2022/12/31 10:27:41;;;;;;;1.00;0.90;;;25.40;99.40;;;;;;5031593;28;20847;-68
2022/12/31 10:30:16;;;;;;;1.10;0.80;;;25.40;99.00;;;;;;5032048;28;20466;-68
2022/12/31 10:32:49;;;;;;;1.10;0.90;;;25.10;98.90;;;;;;5032489;28;20456;-68
2022/12/31 10:35:29;;;;;;;1.63;1.00;;;25.00;99.70;;;;;;5032353;28;20480;-68
2022/12/31 10:38:11;;;;;;;1.93;1.00;;;25.10;99.30;;;;;;5031871;28;20459;-68
2022/12/31 10:41:11;;;;;;;2.93;1.20;;;25.30;98.70;;;;;;5032469;28;20456;-68
2022/12/31 10:44:03;;;;;;;0.97;0.80;;;25.10;99.00;;;;;;5032092;28;20471;-68
2022/12/31 10:46:56;;;;;;;1.50;1.10;;;26.00;98.30;;;;;;5031991;28;20473;-68
2022/12/31 10:49:58;;;;;;;1.00;0.90;;;26.50;97.40;;;;;;5031882;28;20982;-69
2022/12/31 10:53:06;;;;;;;1.07;0.80;;;25.90;97.50;;;;;;5032047;28;20462;-68
2022/12/31 10:56:02;;;;;;;1.00;0.80;;;26.10;97.30;;;;;;5031599;28;20491;-68
2022/12/31 10:58:55;;;;;;;1.20;1.00;;;26.80;96.80;;;;;;5025753;28;20467;-68
2022/12/31 11:01:32;;;;;;;0.80;0.70;;;26.60;96.60;;;;;;5031400;28;20857;-68
2022/12/31 11:04:37;;;;;;;1.00;0.90;;;26.60;96.00;;;;;;5032386;28;20478;-68
2022/12/31 11:07:42;;;;;;;1.10;1.00;;;26.30;96.60;;;;;;5031654;28;20879;-68
2022/12/31 11:10:42;;;;;;;1.07;0.90;;;26.80;96.10;;;;;;5031209;28;20486;-67
2022/12/31 11:13:35;;;;;;;1.00;0.83;;;26.50;95.60;;;;;;5031657;28;20463;-67
2022/12/31 11:16:19;;;;;;;0.90;0.80;;;26.30;96.20;;;;;;5031372;28;20862;-67
2022/12/31 11:18:56;;;;;;;1.23;0.93;;;26.90;95.10;;;;;;5031342;28;20908;-68
2022/12/31 11:21:35;;;;;;;0.90;0.80;;;27.20;95.30;;;;;;5031385;28;20510;-67
2022/12/31 11:24:14;;;;;;;1.40;0.90;;;26.50;95.20;;;;;;5031867;28;20455;-67
2022/12/31 11:26:51;;;;;;;0.93;0.77;;;25.70;95.90;;;;;;5032223;28;20453;-68
2022/12/31 11:29:29;;;;;;;1.00;0.80;;;24.80;97.00;;;;;;5031055;28;20467;-67
2022/12/31 11:32:06;;;;;;;1.00;0.90;;;24.60;97.10;;;;;;5031413;28;20554;-67
2022/12/31 11:35:12;;;;;;;1.00;0.80;;;24.30;97.10;;;;;;5031030;28;20482;-67
2022/12/31 11:37:45;;;;;;;0.90;0.80;;;23.50;97.40;;;;;;5013664;28;20480;-67
2022/12/31 11:40:36;;;;;;;1.17;1.00;;;23.20;98.20;;;;;;5010351;28;20475;-67
2022/12/31 11:43:22;;;;;;;1.37;1.00;;;23.20;98.30;;;;;;5011833;28;20458;-67
2022/12/31 11:46:06;;;;;;;1.97;0.80;;;23.20;98.40;;;;;;5011316;28;20509;-67
2022/12/31 11:48:39;;;;;;;0.90;0.77;;;23.50;98.00;;;;;;5010281;28;20461;-67
2022/12/31 11:51:35;;;;;;;1.30;1.03;;;23.50;98.30;;;;;;5011853;28;20488;-67
2022/12/31 11:54:40;;;;;;;2.23;1.10;;;23.30;98.40;;;;;;5013127;28;20463;-67
2022/12/31 11:57:18;;;;;;;1.33;1.10;;;23.50;98.30;;;;;;5020385;28;20477;-67
2022/12/31 11:59:45;;;;;;;1.00;0.90;;;23.60;98.00;;;;;;5010366;28;20463;-67
2022/12/31 12:02:26;;;;;;;1.17;0.97;;;23.00;98.60;;;;;;5010751;28;20519;-67
2022/12/31 12:04:54;;;;;;;1.37;1.23;;;22.20;99.40;;;;;;5010819;28;20477;-67
2022/12/31 12:07:23;;;;;;;1.33;0.90;;;21.80;99.60;;;;;;5010863;28;20472;-67
2022/12/31 12:09:52;;;;;;;1.00;0.90;;;21.60;99.90;;;;;;5010457;28;20457;-67
2022/12/31 12:12:21;;;;;;;0.90;0.80;;;21.60;99.90;;;;;;5010203;28;20975;-67
2022/12/31 12:14:52;;;;;;;0.93;0.83;;;21.90;99.80;;;;;;5010765;28;20850;-67
2022/12/31 12:17:30;;;;;;;1.67;1.10;;;21.90;99.90;;;;;;5010195;28;20829;-67
2022/12/31 12:20:00;;;;;;;1.20;1.00;;;21.80;99.90;;;;;;5009382;28;20461;-67
2022/12/31 12:22:29;;;;;;;1.03;0.80;;;21.90;99.80;;;;;;5010003;28;20461;-67
2022/12/31 12:24:58;;;;;;;0.80;0.70;;;21.90;99.70;;;;;;5010228;28;20565;-67
2022/12/31 12:27:29;;;;;;;1.10;0.80;;;22.10;99.80;;;;;;5010743;28;21057;-67
2022/12/31 12:29:56;;;;;;;1.27;0.80;;;22.00;99.70;;;;;;5009853;28;20461;-67
2022/12/31 12:32:24;;;;;;;1.20;0.70;;;21.50;99.70;;;;;;5010296;28;20964;-67
2022/12/31 12:34:53;;;;;;;0.90;0.70;;;20.90;99.90;;;;;;5010633;28;20928;-67
2022/12/31 12:37:28;;;;;;;0.90;0.70;;;20.70;99.90;;;;;;5009815;28;20488;-67
2022/12/31 12:39:57;;;;;;;1.20;0.70;;;20.90;99.90;;;;;;5010418;28;20467;-67
2022/12/31 12:42:23;;;;;;;1.20;1.10;;;20.90;99.90;;;;;;5010013;28;20940;-67
2022/12/31 12:45:02;;;;;;;1.33;0.93;;;20.80;99.90;;;;;;5010746;28;20480;-67
2022/12/31 12:47:30;;;;;;;1.00;0.80;;;20.70;99.90;;;;;;5010334;28;20568;-67
2022/12/31 12:49:58;;;;;;;1.10;0.93;;;20.80;99.90;;;;;;5009710;28;20457;-69
2022/12/31 12:52:44;;;;;;;1.20;0.90;;;21.10;99.90;;;;;;5010043;28;20468;-69
2022/12/31 12:55:20;;;;;;;0.97;0.80;;;21.20;99.90;;;;;;5011305;28;20481;-69
2022/12/31 12:57:54;;;;;;;0.87;0.73;;;20.80;99.90;;;;;;5011256;28;20487;-68
2022/12/31 13:00:28;;;;;;;0.80;0.70;;;20.80;99.90;;;;;;5009673;28;20848;-69
2022/12/31 13:03:18;;;;;;;0.90;0.73;;;20.70;99.90;;;;;;5009846;28;20468;-68
2022/12/31 13:05:56;;;;;;;1.00;0.90;;;20.40;99.90;;;;;;5010091;28;20485;-68
2022/12/31 13:08:44;;;;;;;1.30;0.93;;;20.30;99.90;;;;;;5009203;28;20506;-68
2022/12/31 13:11:25;;;;;;;1.00;0.80;;;20.20;99.90;;;;;;5010280;28;20473;-68
2022/12/31 13:13:59;;;;;;;1.63;0.93;;;20.10;99.90;;;;;;5009709;28;20567;-68
2022/12/31 13:16:36;;;;;;;1.00;0.80;;;20.00;99.90;;;;;;5009436;28;20500;-69
2022/12/31 13:19:11;;;;;;;1.00;0.80;;;19.70;99.90;;;;;;5009593;28;20951;-68
2022/12/31 13:21:52;;;;;;;0.90;0.70;;;19.50;99.90;;;;;;5009564;28;20968;-68
2022/12/31 13:24:34;;;;;;;0.90;0.80;;;19.40;99.90;;;;;;5009498;28;20461;-68
2022/12/31 13:27:12;;;;;;;0.90;0.70;;;19.20;99.90;;;;;;5009687;28;20807;-69
2022/12/31 13:29:41;;;;;;;0.80;0.70;;;19.20;99.90;;;;;;5009541;28;20884;-68
2022/12/31 13:32:17;;;;;;;0.90;0.70;;;19.20;99.90;;;;;;5009584;28;20472;-68
2022/12/31 13:34:47;;;;;;;0.90;0.80;;;19.10;99.90;;;;;;5010502;28;20480;-68
2022/12/31 13:37:24;;;;;;;1.37;0.80;;;19.00;99.90;;;;;;5013407;28;20493;-68
2022/12/31 13:39:58;;;;;;;1.00;0.80;;;19.00;99.90;;;;;;5012806;28;20460;-68
2022/12/31 13:42:29;;;;;;;0.90;0.70;;;19.00;99.90;;;;;;5013209;28;20465;-69
2022/12/31 13:45:00;;;;;;;0.90;0.70;;;19.00;99.90;;;;;;5013618;28;20492;-68
2022/12/31 13:47:34;;;;;;;1.00;0.80;;;18.90;99.90;;;;;;5012981;28;20463;-69
2022/12/31 13:50:13;;;;;;;1.00;0.90;;;18.90;99.90;;;;;;5013123;28;20469;-68
2022/12/31 13:52:45;;;;;;;1.77;1.00;;;18.90;99.90;;;;;;5012812;28;20491;-68
2022/12/31 13:55:18;;;;;;;1.67;0.90;;;18.90;99.90;;;;;;5012963;28;20473;-68
2022/12/31 13:57:49;;;;;;;1.47;1.10;;;18.80;99.90;;;;;;5013121;28;20493;-68
2022/12/31 14:00:24;;;;;;;1.37;1.07;;;18.60;99.90;;;;;;5011887;28;20468;-68
2022/12/31 14:02:58;;;;;;;1.00;0.80;;;18.50;99.90;;;;;;5012993;28;20987;-69
2022/12/31 14:05:32;;;;;;;1.83;1.20;;;18.50;99.90;;;;;;5012415;28;20502;-68
2022/12/31 14:08:00;;;;;;;1.07;0.97;;;18.40;99.90;;;;;;5013077;28;20870;-69
2022/12/31 14:10:40;;;;;;;2.77;1.90;;;18.30;99.90;;;;;;5012251;28;20477;-68
2022/12/31 14:13:19;;;;;;;1.10;0.80;;;18.30;99.90;;;;;;5012508;28;20508;-68
2022/12/31 14:15:59;;;;;;;1.10;0.90;;;18.30;99.90;;;;;;5012950;28;20488;-68
2022/12/31 14:18:34;;;;;;;1.40;1.00;;;18.20;99.90;;;;;;5011614;28;20496;-68
2022/12/31 14:21:06;;;;;;;1.13;1.03;;;18.20;99.90;;;;;;5013048;28;20461;-68
2022/12/31 14:23:38;;;;;;;1.40;0.80;;;18.10;99.90;;;;;;5021984;28;20461;-68
2022/12/31 14:26:09;;;;;;;1.23;1.13;;;18.00;99.90;;;;;;5031607;28;20480;-69
2022/12/31 14:28:42;;;;;;;1.73;0.70;;;18.00;99.90;;;;;;5032179;28;20461;-69
2022/12/31 14:31:19;;;;;;;1.30;1.00;;;17.90;99.90;;;;;;5030941;28;20465;-68
2022/12/31 14:33:55;;;;;;;1.50;1.00;;;17.90;99.90;;;;;;5031911;28;20836;-68
2022/12/31 14:36:34;;;;;;;1.77;1.10;;;17.80;99.90;;;;;;5031843;28;20855;-68
2022/12/31 14:39:22;;;;;;;1.57;1.17;;;17.70;99.90;;;;;;5031070;28;20467;-68
2022/12/31 14:42:03;;;;;;;1.00;0.90;;;17.60;99.90;;;;;;5031875;28;20456;-68
2022/12/31 14:44:45;;;;;;;1.10;1.00;;;17.40;99.90;;;;;;5031928;28;20467;-68
2022/12/31 14:47:27;;;;;;;2.10;1.57;;;17.30;99.90;;;;;;5031796;28;20452;-68
2022/12/31 14:50:04;;;;;;;1.10;1.00;;;17.20;99.90;;;;;;5031236;28;20463;-68
2022/12/31 14:52:32;;;;;;;1.90;1.40;;;17.10;99.90;;;;;;5031320;28;20546;-68
2022/12/31 14:55:01;;;;;;;2.80;1.20;;;17.10;99.90;;;;;;5032262;28;20576;-68
2022/12/31 14:57:36;;;;;;;1.83;1.20;;;17.00;99.90;;;;;;5031522;28;20480;-68
2022/12/31 15:00:29;;;;;;;1.93;1.33;;;16.90;99.90;;;;;;5031426;28;20470;-68
2022/12/31 15:02:58;;;;;;;1.93;1.40;;;16.90;99.90;;;;;;5031944;28;20468;-68
2022/12/31 15:05:29;;;;;;;1.60;1.47;;;16.80;99.90;;;;;;5030971;28;20855;-68
2022/12/31 15:08:13;;;;;;;2.20;1.70;;;16.80;99.90;;;;;;5031990;28;20480;-68
2022/12/31 15:10:49;;;;;;;1.70;1.60;;;16.70;99.90;;;;;;5013311;28;20473;-68
2022/12/31 15:13:27;;;;;;;1.80;1.70;;;16.60;99.90;;;;;;5011688;28;20460;-68
2022/12/31 15:16:09;;;;;;;1.97;1.30;;;16.50;99.90;;;;;;5011943;28;20588;-68
2022/12/31 15:18:52;;;;;;;3.00;1.80;;;16.50;99.90;;;;;;5010491;28;21018;-68
2022/12/31 15:21:43;;;;;;;1.17;1.07;;;16.40;99.90;;;;;;5011601;28;20461;-68
2022/12/31 15:24:18;;;;;;;2.27;1.90;;;16.40;99.90;;;;;;5007823;28;20879;-68
2022/12/31 15:26:49;;;;;;;3.00;1.70;;;16.30;99.90;;;;;;5011718;28;20493;-69
2022/12/31 15:29:29;;;;;;;4.10;3.70;;;16.30;99.90;;;;;;5010850;28;20468;-68
2022/12/31 15:31:57;;;;;;;6.00;4.20;;;16.30;99.90;;;;;;5011526;28;20464;-68
2022/12/31 15:34:28;;;;;;;4.00;3.30;;;16.10;99.90;;;;;;5011286;28;20469;-69
2022/12/31 15:36:57;;;;;;;3.80;3.10;;;16.00;99.90;;;;;;5011041;28;20528;-67
2022/12/31 15:39:37;;;;;;;4.60;4.13;;;15.90;99.90;;;;;;5010631;28;20469;-68
2022/12/31 15:42:04;;;;;;;5.17;3.13;;;15.80;99.90;;;;;;5010526;28;20960;-68
2022/12/31 15:44:41;;;;;;;5.87;4.70;;;15.80;99.90;;;;;;5011041;28;20470;-68
2022/12/31 15:47:16;;;;;;;4.77;4.33;;;15.60;99.90;;;;;;5011317;28;20460;-67
2022/12/31 15:49:46;;;;;;;5.33;4.20;;;15.50;99.90;;;;;;5010337;28;20465;-68
2022/12/31 15:52:20;;;;;;;6.10;5.50;;;15.30;99.90;;;;;;5011504;28;20465;-68
2022/12/31 15:54:49;;;;;;;6.60;5.50;;;15.20;99.90;;;;;;5009611;28;20469;-68
2022/12/31 15:57:19;;;;;;;4.30;3.77;;;15.10;99.90;;;;;;5010359;28;20493;-68
2022/12/31 15:59:46;;;;;;;2.10;1.90;;;14.90;99.90;;;;;;5010018;28;20661;-68
2022/12/31 16:02:20;;;;;;;3.93;2.83;;;14.80;99.90;;;;;;5010713;28;20461;-68
2022/12/31 16:04:48;;;;;;;3.03;2.30;;;14.80;99.90;;;;;;5009873;28;21151;-68
2022/12/31 16:07:17;;;;;;;1.93;1.70;;;14.70;99.90;;;;;;5029716;28;20452;-68
2022/12/31 16:09:49;;;;;;;2.57;1.93;;;14.70;99.90;;;;;;5030109;28;20835;-68
2022/12/31 16:12:20;;;;;;;1.73;1.63;;;14.70;99.90;;;;;;5029988;28;20467;-69
2022/12/31 16:14:51;;;;;;;2.20;1.43;;;14.70;99.90;;;;;;5025860;28;20488;-68
2022/12/31 16:17:26;;;;;;;2.87;2.03;;;14.80;99.90;;;;;;5010889;28;20489;-68
2022/12/31 16:19:53;;;;;;;2.50;1.50;;;14.90;99.90;;;;;;5008914;28;20503;-68
2022/12/31 16:22:27;;;;;;;1.60;1.30;;;15.00;99.90;;;;;;5009981;28;20831;-68
2022/12/31 16:24:56;;;;;;;3.53;2.03;;;15.10;99.90;;;;;;5010355;28;20500;-67
2022/12/31 16:27:24;;;;;;;2.20;1.40;;;15.10;99.90;;;;;;5010433;28;20461;-68
2022/12/31 16:29:58;;;;;;;4.13;3.70;;;15.10;99.90;;;;;;5009906;28;20465;-68
2022/12/31 16:32:24;;;;;;;3.50;3.20;;;15.10;99.90;;;;;;5010307;28;21030;-68
2022/12/31 16:34:53;;;;;;;2.90;1.90;;;15.10;99.90;;;;;;5010572;28;20489;-68
2022/12/31 16:37:21;;;;;;;2.53;1.73;;;15.00;99.90;;;;;;5010238;28;20503;-69
2022/12/31 16:40:21;;;;;;;2.00;1.50;;;15.00;99.90;;;;;;5009928;28;20465;-69
2022/12/31 16:42:48;;;;;;;1.37;1.27;;;15.00;99.90;;;;;;5010029;28;20461;-68
2022/12/31 16:45:31;;;;;;;2.10;1.83;;;15.00;99.90;;;;;;5009968;28;20559;-68
2022/12/31 16:48:06;;;;;;;2.53;2.23;;;15.00;99.90;;;;;;5010472;28;20468;-68
2022/12/31 16:50:33;;;;;;;1.73;1.63;;;14.90;99.90;;;;;;5022981;28;20466;-68
2022/12/31 16:53:04;;;;;;;1.77;1.67;;;14.90;99.90;;;;;;5030186;28;20863;-68
2022/12/31 16:55:34;;;;;;;2.10;1.80;;;14.90;99.90;;;;;;5029323;28;20492;-68
2022/12/31 16:58:07;;;;;;;2.17;1.97;;;14.90;99.90;;;;;;5029980;28;20503;-68
2022/12/31 17:00:35;;;;;;;2.20;2.00;;;14.80;99.90;;;;;;5029503;28;20471;-68
2022/12/31 17:03:08;;;;;;;2.00;1.80;;;14.70;99.90;;;;;;5029419;28;20947;-68